Time;durP1;ratioP1;P1;durP2;ratioP2;P2;SDS_P1;SDS_P2;PMS_P1;PMS_P2;Temp;Humidity;BMP_temperature;BMP_pressure;BME280_temperature;BME280_humidity;BME280_pressure;Samples;Min_cycle;Max_cycle;Signal;HPM_P1;HPM_P2
2020/12/06 00:01:59;;;;;;;0.30;0.30;;;7.00;99.90;;;;;;10452237;28;20225;-72
2020/12/06 00:07:04;;;;;;;0.43;0.37;;;6.90;99.90;;;;;;10450921;28;20219;-72
2020/12/06 00:12:06;;;;;;;0.73;0.70;;;6.80;99.90;;;;;;10451794;28;20245;-72
2020/12/06 00:17:09;;;;;;;0.30;0.20;;;6.70;99.90;;;;;;10451557;28;20657;-72
2020/12/06 00:22:13;;;;;;;1.53;0.43;;;6.70;99.90;;;;;;10451719;28;20193;-72
2020/12/06 00:27:16;;;;;;;0.40;0.37;;;6.30;99.90;;;;;;10431300;28;20204;-73
2020/12/06 00:32:18;;;;;;;0.20;0.10;;;6.20;99.90;;;;;;10406105;28;20222;-72
2020/12/06 00:37:22;;;;;;;0.20;0.13;;;6.30;99.90;;;;;;10406082;28;20651;-71
2020/12/06 00:42:24;;;;;;;0.40;0.40;;;6.50;99.90;;;;;;10405622;28;20206;-72
2020/12/06 00:47:26;;;;;;;0.30;0.20;;;6.50;99.90;;;;;;10420975;28;20202;-73
2020/12/06 00:52:30;;;;;;;0.30;0.20;;;6.60;99.90;;;;;;10405015;28;20222;-72
2020/12/06 00:57:32;;;;;;;0.33;0.23;;;6.60;99.90;;;;;;10397709;28;20198;-73
2020/12/06 01:02:35;;;;;;;0.20;0.10;;;6.60;99.90;;;;;;10405538;28;20233;-74
2020/12/06 01:07:39;;;;;;;0.20;0.10;;;6.60;99.90;;;;;;10420466;28;20196;-74
2020/12/06 01:12:41;;;;;;;0.20;0.10;;;6.60;99.90;;;;;;10404878;28;20770;-74
2020/12/06 01:17:44;;;;;;;3.70;0.93;;;6.40;99.90;;;;;;10411090;28;20198;-72
2020/12/06 01:22:47;;;;;;;0.20;0.07;;;6.50;99.90;;;;;;10443009;28;20201;-72
2020/12/06 01:27:50;;;;;;;0.67;0.47;;;6.70;99.90;;;;;;10443350;28;20654;-70
2020/12/06 01:32:52;;;;;;;7.00;0.60;;;6.60;99.90;;;;;;10443903;28;20694;-72
2020/12/06 01:37:55;;;;;;;0.30;0.20;;;6.60;99.90;;;;;;10443884;28;20202;-72
2020/12/06 01:42:59;;;;;;;0.20;0.10;;;6.50;99.90;;;;;;10444026;28;20280;-70
2020/12/06 01:48:02;;;;;;;0.20;0.10;;;6.50;99.90;;;;;;10439059;28;20221;-71
2020/12/06 01:53:07;;;;;;;0.20;0.10;;;6.50;99.90;;;;;;10419664;28;20789;-71
2020/12/06 01:58:10;;;;;;;0.20;0.10;;;6.40;99.90;;;;;;10403466;28;20205;-71
2020/12/06 02:03:14;;;;;;;0.33;0.23;;;6.40;99.90;;;;;;10404615;28;20226;-71
2020/12/06 02:08:17;;;;;;;0.20;0.10;;;6.40;99.90;;;;;;10403786;28;20556;-70
2020/12/06 02:13:21;;;;;;;0.20;0.13;;;6.50;99.90;;;;;;10403721;28;20228;-71
2020/12/06 02:18:23;;;;;;;1.07;0.53;;;6.70;99.90;;;;;;10403858;28;20679;-71
2020/12/06 02:23:27;;;;;;;0.23;0.20;;;6.70;99.90;;;;;;10403570;28;20201;-71
2020/12/06 02:28:29;;;;;;;0.73;0.67;;;6.70;99.90;;;;;;10403278;28;20737;-71
2020/12/06 02:33:31;;;;;;;0.30;0.20;;;6.70;99.90;;;;;;10409626;28;20234;-73
2020/12/06 02:38:35;;;;;;;0.20;0.10;;;6.70;99.90;;;;;;10410961;28;20202;-70
2020/12/06 02:43:37;;;;;;;0.27;0.20;;;6.70;99.90;;;;;;10410489;28;20204;-71
2020/12/06 02:48:40;;;;;;;0.30;0.30;;;6.70;99.90;;;;;;10410380;28;20292;-71
2020/12/06 02:53:43;;;;;;;1.30;0.80;;;6.70;99.90;;;;;;10410227;28;20233;-72
2020/12/06 02:58:46;;;;;;;0.30;0.20;;;6.70;99.90;;;;;;10402818;28;20203;-71
2020/12/06 03:03:49;;;;;;;0.20;0.10;;;6.50;99.90;;;;;;10410616;28;20218;-71
2020/12/06 03:08:52;;;;;;;0.23;0.23;;;6.50;99.90;;;;;;10432635;28;20201;-70
2020/12/06 03:13:55;;;;;;;0.20;0.17;;;6.50;99.90;;;;;;10448664;28;20228;-70
2020/12/06 03:18:57;;;;;;;0.20;0.20;;;6.40;99.90;;;;;;10443025;28;20190;-72
2020/12/06 03:24:01;;;;;;;0.20;0.10;;;6.40;99.90;;;;;;10407821;28;20194;-70
2020/12/06 03:29:04;;;;;;;0.20;0.10;;;6.50;99.90;;;;;;10407925;28;20198;-70
2020/12/06 03:34:06;;;;;;;0.50;0.37;;;6.70;99.90;;;;;;10408589;28;20724;-70
2020/12/06 03:39:10;;;;;;;0.20;0.10;;;6.60;99.90;;;;;;10452002;28;20197;-73
2020/12/06 03:44:12;;;;;;;0.20;0.10;;;6.50;99.90;;;;;;10447829;28;20199;-72
2020/12/06 03:49:15;;;;;;;0.20;0.20;;;6.30;99.90;;;;;;10447730;28;20202;-70
2020/12/06 03:54:18;;;;;;;0.27;0.20;;;6.20;99.90;;;;;;10423233;28;20222;-70
2020/12/06 03:59:21;;;;;;;0.20;0.10;;;6.20;99.90;;;;;;10408292;28;20555;-70
2020/12/06 04:04:23;;;;;;;0.20;0.10;;;6.20;99.90;;;;;;10408859;28;20304;-72
2020/12/06 04:09:26;;;;;;;0.20;0.10;;;6.20;99.90;;;;;;10407600;28;20206;-72
2020/12/06 04:14:29;;;;;;;0.30;0.20;;;6.20;99.90;;;;;;10406680;28;20229;-72
2020/12/06 04:19:31;;;;;;;0.50;0.20;;;6.00;99.90;;;;;;10407922;28;20281;-71
2020/12/06 04:24:36;;;;;;;0.43;0.30;;;6.00;99.90;;;;;;10406882;28;20300;-73
2020/12/06 04:29:38;;;;;;;0.20;0.10;;;6.10;99.90;;;;;;10405907;28;20564;-73
2020/12/06 04:34:41;;;;;;;0.20;0.10;;;6.10;99.90;;;;;;10406134;28;20233;-73
2020/12/06 04:39:45;;;;;;;0.43;0.33;;;6.00;99.90;;;;;;10405802;28;20711;-74
2020/12/06 04:44:48;;;;;;;0.23;0.23;;;6.10;99.90;;;;;;10405906;28;20198;-73
2020/12/06 04:49:59;;;;;;;0.20;0.10;;;6.10;99.90;;;;;;10405393;28;20190;-71
2020/12/06 04:55:06;;;;;;;0.40;0.20;;;5.90;99.90;;;;;;10404843;28;20257;-70
2020/12/06 05:00:11;;;;;;;0.30;0.10;;;6.00;99.90;;;;;;10405128;28;20288;-69
2020/12/06 05:05:15;;;;;;;0.20;0.10;;;5.90;99.90;;;;;;10400008;28;20198;-70
2020/12/06 05:10:19;;;;;;;0.27;0.27;;;6.00;99.90;;;;;;10401451;28;20204;-70
2020/12/06 05:15:21;;;;;;;0.73;0.40;;;5.90;99.90;;;;;;10404003;28;20222;-70
2020/12/06 05:20:24;;;;;;;0.30;0.30;;;6.00;99.90;;;;;;10404569;28;20577;-71
2020/12/06 05:25:28;;;;;;;0.20;0.10;;;6.00;99.90;;;;;;10403827;28;20206;-70
2020/12/06 05:30:31;;;;;;;0.33;0.30;;;6.00;99.90;;;;;;10401497;28;20202;-71
2020/12/06 05:35:33;;;;;;;0.20;0.10;;;6.00;99.90;;;;;;10403961;28;20259;-74
2020/12/06 05:40:45;;;;;;;0.40;0.40;;;6.10;99.90;;;;;;10404245;28;20200;-72
2020/12/06 05:45:47;;;;;;;0.77;0.73;;;6.20;99.90;;;;;;10404347;28;20202;-73
2020/12/06 05:50:50;;;;;;;0.20;0.13;;;6.10;99.90;;;;;;10404109;28;20198;-73
2020/12/06 05:55:58;;;;;;;0.20;0.20;;;6.00;99.90;;;;;;10403313;28;20204;-73
2020/12/06 06:01:01;;;;;;;0.20;0.10;;;6.00;99.90;;;;;;10403977;28;20318;-72
2020/12/06 06:06:05;;;;;;;0.20;0.20;;;5.90;99.90;;;;;;10408352;28;20194;-72
2020/12/06 06:11:21;;;;;;;0.30;0.27;;;6.00;99.90;;;;;;10411335;28;20689;-73
2020/12/06 06:16:25;;;;;;;0.20;0.10;;;5.90;99.90;;;;;;10411784;28;20577;-73
2020/12/06 06:21:31;;;;;;;0.20;0.10;;;6.10;99.90;;;;;;10411469;28;20669;-71
2020/12/06 06:26:39;;;;;;;0.30;0.20;;;6.10;99.90;;;;;;10410449;28;20206;-70
2020/12/06 06:31:43;;;;;;;0.20;0.10;;;6.10;99.90;;;;;;10409879;28;20233;-72
2020/12/06 06:36:46;;;;;;;0.30;0.30;;;6.00;99.90;;;;;;10410529;28;20670;-72
2020/12/06 06:41:59;;;;;;;0.20;0.10;;;5.90;99.90;;;;;;10410620;28;20197;-73
2020/12/06 06:47:04;;;;;;;3.07;0.80;;;5.90;99.90;;;;;;10425724;28;20653;-70
2020/12/06 06:52:07;;;;;;;0.20;0.10;;;5.80;99.90;;;;;;10413450;28;20236;-71
2020/12/06 06:57:11;;;;;;;0.33;0.27;;;5.60;99.90;;;;;;10449455;28;20677;-70
2020/12/06 07:02:30;;;;;;;0.30;0.30;;;5.70;99.90;;;;;;10449153;28;20227;-72
2020/12/06 07:07:40;;;;;;;0.97;0.30;;;5.60;99.90;;;;;;10464274;28;20284;-71
2020/12/06 07:12:49;;;;;;;0.20;0.20;;;5.60;99.90;;;;;;10447929;28;20217;-71
2020/12/06 07:17:54;;;;;;;0.20;0.20;;;5.70;99.90;;;;;;10448590;28;20653;-73
2020/12/06 07:22:56;;;;;;;0.20;0.10;;;5.80;99.90;;;;;;10402293;28;20274;-72
2020/12/06 07:28:00;;;;;;;1.23;0.73;;;5.90;99.90;;;;;;10408951;28;20720;-72
2020/12/06 07:33:03;;;;;;;0.30;0.30;;;6.10;99.90;;;;;;10408876;28;20705;-72
2020/12/06 07:38:05;;;;;;;0.20;0.10;;;6.20;99.90;;;;;;10408135;28;20200;-73
2020/12/06 07:43:12;;;;;;;0.30;0.13;;;6.20;99.90;;;;;;10408038;28;20643;-70
2020/12/06 07:48:20;;;;;;;0.50;0.47;;;6.20;99.90;;;;;;10408679;28;20200;-70
2020/12/06 07:53:23;;;;;;;0.30;0.20;;;6.30;99.90;;;;;;10447503;28;20229;-71
2020/12/06 07:58:28;;;;;;;0.40;0.30;;;6.40;99.90;;;;;;10447221;28;20194;-70
2020/12/06 08:03:32;;;;;;;0.63;0.63;;;6.50;99.90;;;;;;10446811;28;20236;-71
2020/12/06 08:08:39;;;;;;;0.43;0.40;;;6.60;99.90;;;;;;10445769;28;20208;-71
2020/12/06 08:13:42;;;;;;;0.20;0.20;;;6.80;99.90;;;;;;10446106;28;20591;-71
2020/12/06 08:18:45;;;;;;;0.20;0.10;;;7.00;99.90;;;;;;10446335;28;20637;-72
2020/12/06 08:23:47;;;;;;;2.43;0.30;;;7.20;99.90;;;;;;10448296;28;20305;-71
2020/12/06 08:28:51;;;;;;;0.20;0.10;;;7.30;99.90;;;;;;10462809;28;20637;-72
2020/12/06 08:33:53;;;;;;;0.40;0.40;;;7.40;99.90;;;;;;10445993;28;20229;-71
2020/12/06 08:38:56;;;;;;;2.47;0.50;;;7.30;99.90;;;;;;10444824;28;20205;-71
2020/12/06 08:44:03;;;;;;;0.20;0.20;;;7.30;99.90;;;;;;10418209;28;20267;-73
2020/12/06 08:49:16;;;;;;;0.47;0.30;;;7.20;99.90;;;;;;10445139;28;20217;-72
2020/12/06 08:54:32;;;;;;;0.20;0.20;;;7.10;99.90;;;;;;10444676;28;20304;-73
2020/12/06 08:59:37;;;;;;;0.40;0.30;;;7.10;99.90;;;;;;10444776;28;20280;-73
2020/12/06 09:04:40;;;;;;;0.20;0.17;;;7.20;99.90;;;;;;10417225;28;20198;-73
2020/12/06 09:09:42;;;;;;;0.30;0.30;;;7.10;99.90;;;;;;10440944;28;20283;-74
2020/12/06 09:14:46;;;;;;;0.30;0.30;;;7.10;99.90;;;;;;10412292;28;20230;-73
2020/12/06 09:19:48;;;;;;;0.20;0.10;;;7.20;99.90;;;;;;10410192;28;20243;-73
2020/12/06 09:24:51;;;;;;;0.47;0.33;;;7.30;99.90;;;;;;10408963;28;20654;-72
2020/12/06 09:29:54;;;;;;;0.30;0.20;;;7.40;99.90;;;;;;10393979;28;20281;-71
2020/12/06 09:34:56;;;;;;;0.23;0.23;;;7.50;99.90;;;;;;10388046;28;20225;-71
2020/12/06 09:39:59;;;;;;;0.33;0.33;;;7.60;99.90;;;;;;10392803;28;20222;-72
2020/12/06 09:45:02;;;;;;;0.33;0.33;;;7.60;99.90;;;;;;10405484;28;20679;-70
2020/12/06 09:50:05;;;;;;;0.37;0.30;;;7.60;99.90;;;;;;10401188;28;20190;-71
2020/12/06 09:55:07;;;;;;;0.80;0.70;;;7.30;99.90;;;;;;10400308;28;20225;-70
2020/12/06 10:00:11;;;;;;;1.13;0.77;;;7.80;99.90;;;;;;10401996;28;20216;-72
2020/12/06 10:05:13;;;;;;;0.30;0.20;;;7.70;99.90;;;;;;10406250;28;20510;-72
2020/12/06 10:10:16;;;;;;;0.20;0.20;;;8.30;99.90;;;;;;10400782;28;20186;-71
2020/12/06 10:15:20;;;;;;;0.80;0.60;;;8.80;99.90;;;;;;10454439;28;20221;-73
2020/12/06 10:20:22;;;;;;;0.30;0.30;;;8.70;99.90;;;;;;10472007;28;20205;-72
2020/12/06 10:25:25;;;;;;;0.20;0.20;;;8.60;99.90;;;;;;10434714;28;20213;-73
2020/12/06 10:30:28;;;;;;;0.20;0.10;;;8.90;99.90;;;;;;10416388;28;20209;-72
2020/12/06 10:35:32;;;;;;;0.20;0.10;;;9.90;99.90;;;;;;10415137;28;20225;-72
2020/12/06 10:40:34;;;;;;;0.20;0.20;;;10.30;99.90;;;;;;10413905;28;20276;-72
2020/12/06 10:45:38;;;;;;;0.57;0.57;;;10.90;99.90;;;;;;10416373;28;20307;-72
2020/12/06 10:50:41;;;;;;;0.20;0.10;;;11.00;99.90;;;;;;10428569;28;20309;-72
2020/12/06 10:55:43;;;;;;;0.20;0.20;;;11.20;99.90;;;;;;10409069;28;20226;-71
2020/12/06 11:00:46;;;;;;;0.27;0.20;;;11.20;99.90;;;;;;10408657;28;20604;-72
2020/12/06 11:05:49;;;;;;;0.20;0.20;;;11.30;99.90;;;;;;10409514;28;20285;-72
2020/12/06 11:10:52;;;;;;;0.20;0.10;;;11.60;99.90;;;;;;10408241;28;20201;-69
2020/12/06 11:15:56;;;;;;;0.70;0.40;;;11.50;99.90;;;;;;10422880;28;20269;-70
2020/12/06 11:20:59;;;;;;;0.20;0.10;;;11.70;99.90;;;;;;10407650;28;20678;-71
2020/12/06 11:26:02;;;;;;;0.80;0.50;;;11.80;99.90;;;;;;10406092;28;20647;-69
2020/12/06 11:31:06;;;;;;;0.20;0.10;;;11.90;99.90;;;;;;10407811;28;20684;-69
2020/12/06 11:36:12;;;;;;;2.47;0.30;;;11.90;99.90;;;;;;10406869;28;20230;-72
2020/12/06 11:41:16;;;;;;;1.43;0.50;;;11.80;99.90;;;;;;10407400;28;20248;-73
2020/12/06 11:46:19;;;;;;;0.20;0.10;;;11.40;99.90;;;;;;10408049;28;20187;-71
2020/12/06 11:51:22;;;;;;;0.20;0.20;;;11.60;99.90;;;;;;10407298;28;20190;-72
2020/12/06 11:56:24;;;;;;;0.40;0.30;;;11.70;99.90;;;;;;10409124;28;20225;-70
2020/12/06 12:01:28;;;;;;;0.27;0.20;;;11.50;99.90;;;;;;10405477;28;20551;-68
2020/12/06 12:06:30;;;;;;;0.30;0.23;;;11.70;99.90;;;;;;10405441;28;20212;-72
2020/12/06 12:11:33;;;;;;;0.30;0.23;;;11.70;99.90;;;;;;10421298;28;20194;-72
2020/12/06 12:16:36;;;;;;;0.90;0.40;;;11.80;99.90;;;;;;10405663;28;20209;-71
2020/12/06 12:21:39;;;;;;;0.50;0.50;;;12.00;99.90;;;;;;10420490;28;20289;-70
2020/12/06 12:26:41;;;;;;;0.60;0.30;;;12.30;99.90;;;;;;10404143;28;20671;-70
2020/12/06 12:31:46;;;;;;;1.03;0.77;;;12.50;99.90;;;;;;10404752;28;20263;-70
2020/12/06 12:36:49;;;;;;;0.20;0.20;;;12.90;99.90;;;;;;10405637;28;20535;-70
2020/12/06 12:41:55;;;;;;;0.30;0.20;;;13.00;99.90;;;;;;10405571;28;20198;-69
2020/12/06 12:46:59;;;;;;;0.40;0.40;;;13.10;99.90;;;;;;10404544;28;20651;-71
2020/12/06 12:52:01;;;;;;;0.50;0.50;;;12.80;99.90;;;;;;10405831;28;20221;-71
2020/12/06 12:57:04;;;;;;;0.50;0.50;;;12.70;99.90;;;;;;10406692;28;20198;-71
2020/12/06 13:02:08;;;;;;;0.60;0.60;;;12.70;99.90;;;;;;10404286;28;20230;-71
2020/12/06 13:07:10;;;;;;;5.50;1.90;;;12.90;99.90;;;;;;10402692;28;20666;-72
2020/12/06 13:12:13;;;;;;;3.33;0.77;;;12.90;99.90;;;;;;10404386;28;20218;-72
2020/12/06 13:17:17;;;;;;;0.50;0.30;;;12.90;99.90;;;;;;10417893;28;20210;-72
2020/12/06 13:22:20;;;;;;;0.33;0.33;;;13.40;99.90;;;;;;10404191;28;20220;-72
2020/12/06 13:27:22;;;;;;;0.40;0.40;;;12.90;99.90;;;;;;10404135;28;20200;-70
2020/12/06 13:32:26;;;;;;;0.97;0.87;;;13.10;99.90;;;;;;10404133;28;20276;-72
2020/12/06 13:37:29;;;;;;;0.20;0.10;;;13.50;99.90;;;;;;10404318;28;20200;-72
2020/12/06 13:42:32;;;;;;;0.80;0.67;;;13.60;99.90;;;;;;10404176;28;20648;-72
2020/12/06 13:47:35;;;;;;;0.63;0.63;;;13.20;99.90;;;;;;10404302;28;20200;-70
2020/12/06 13:52:37;;;;;;;0.77;0.33;;;12.80;99.90;;;;;;10403630;28;20225;-70
2020/12/06 13:57:40;;;;;;;0.20;0.20;;;13.40;99.90;;;;;;10403238;28;20190;-70
2020/12/06 14:02:43;;;;;;;2.83;0.80;;;13.40;99.90;;;;;;10401988;28;20590;-70
2020/12/06 14:07:46;;;;;;;1.73;0.63;;;13.70;99.90;;;;;;10403417;28;20213;-71
2020/12/06 14:12:49;;;;;;;0.30;0.23;;;13.40;99.90;;;;;;10403814;28;20218;-76
2020/12/06 14:17:53;;;;;;;0.50;0.47;;;13.00;99.90;;;;;;10443461;28;20607;-77
2020/12/06 14:22:56;;;;;;;2.00;1.00;;;12.90;99.90;;;;;;10443379;28;20205;-75
2020/12/06 14:27:58;;;;;;;0.20;0.20;;;13.10;99.90;;;;;;10417690;28;20213;-77
2020/12/06 14:33:02;;;;;;;1.70;1.07;;;13.00;99.90;;;;;;10411142;28;20233;-76
2020/12/06 14:38:05;;;;;;;3.43;0.30;;;12.80;99.90;;;;;;10409068;28;20639;-75
2020/12/06 14:43:07;;;;;;;0.87;0.60;;;12.70;99.90;;;;;;10443760;28;20189;-78
2020/12/06 14:48:11;;;;;;;1.33;1.20;;;12.80;99.90;;;;;;10413169;28;20533;-78
2020/12/06 14:53:13;;;;;;;1.27;0.90;;;12.60;99.90;;;;;;10458070;28;20221;-77
2020/12/06 14:58:16;;;;;;;1.13;0.67;;;12.40;99.90;;;;;;10437488;28;20206;-78
2020/12/06 15:03:22;;;;;;;0.57;0.33;;;12.40;99.90;;;;;;10425631;28;20226;-78
2020/12/06 15:08:24;;;;;;;0.90;0.17;;;12.30;99.90;;;;;;10448665;28;20190;-77
2020/12/06 15:13:27;;;;;;;0.30;0.17;;;12.50;99.90;;;;;;10421475;28;20685;-76
2020/12/06 15:18:30;;;;;;;0.20;0.20;;;13.80;99.90;;;;;;10431629;28;20564;-76
2020/12/06 15:23:33;;;;;;;1.80;1.13;;;13.40;99.90;;;;;;10423311;28;20195;-77
2020/12/06 15:28:36;;;;;;;2.30;0.33;;;13.10;99.90;;;;;;10448517;28;20281;-78
2020/12/06 15:33:42;;;;;;;1.20;0.97;;;12.90;99.90;;;;;;10395317;22;20262;-77
2020/12/06 15:38:47;;;;;;;2.30;0.77;;;12.80;99.90;;;;;;10386404;28;20278;-79
2020/12/06 15:43:50;;;;;;;0.83;0.73;;;12.80;99.90;;;;;;10401997;28;20646;-78
2020/12/06 15:48:53;;;;;;;8.30;3.20;;;13.00;99.90;;;;;;10398271;28;20627;-78
2020/12/06 15:53:58;;;;;;;0.47;0.43;;;13.10;99.90;;;;;;10388389;28;20659;-77
2020/12/06 15:59:16;;;;;;;0.93;0.63;;;12.70;99.90;;;;;;10367043;28;20296;-79
2020/12/06 16:04:19;;;;;;;1.20;0.70;;;12.00;99.90;;;;;;10389276;28;20668;-79
2020/12/06 16:09:22;;;;;;;1.10;0.93;;;11.80;99.90;;;;;;10363748;28;20198;-75
2020/12/06 16:14:25;;;;;;;0.60;0.60;;;11.40;99.90;;;;;;10364726;28;20230;-79
2020/12/06 16:19:28;;;;;;;1.50;1.40;;;11.30;99.90;;;;;;10374629;28;20207;-79
2020/12/06 16:24:38;;;;;;;2.03;0.87;;;11.60;99.90;;;;;;10363393;28;20203;-78
2020/12/06 16:29:40;;;;;;;1.23;1.07;;;11.00;99.90;;;;;;10370274;28;20283;-78
2020/12/06 16:34:44;;;;;;;2.00;0.90;;;10.70;99.90;;;;;;10363570;28;20313;-78
2020/12/06 16:39:46;;;;;;;2.90;1.47;;;10.60;99.90;;;;;;10365987;28;20652;-75
2020/12/06 16:44:49;;;;;;;0.53;0.30;;;10.60;99.90;;;;;;10367887;28;20190;-77
2020/12/06 16:49:54;;;;;;;1.90;0.80;;;10.30;99.90;;;;;;10366670;28;20286;-77
2020/12/06 16:54:57;;;;;;;3.17;0.73;;;10.20;99.90;;;;;;10367539;28;20316;-78
2020/12/06 17:00:00;;;;;;;1.03;0.93;;;10.10;99.90;;;;;;10369049;28;20229;-76
2020/12/06 17:05:04;;;;;;;5.13;2.03;;;9.90;99.90;;;;;;10353218;28;20577;-77
2020/12/06 17:10:08;;;;;;;4.10;1.87;;;9.80;99.90;;;;;;10325846;28;20202;-78
2020/12/06 17:15:10;;;;;;;1.73;1.33;;;9.50;99.90;;;;;;10339429;28;20265;-79
2020/12/06 17:20:14;;;;;;;2.43;2.20;;;9.70;99.90;;;;;;10366366;28;20198;-77
2020/12/06 17:25:16;;;;;;;1.73;1.60;;;9.30;99.90;;;;;;10382630;28;20285;-76
2020/12/06 17:30:19;;;;;;;0.87;0.63;;;9.50;99.90;;;;;;10375215;28;20327;-78
2020/12/06 17:35:22;;;;;;;2.87;1.50;;;10.00;99.90;;;;;;10386167;28;20226;-77
2020/12/06 17:40:25;;;;;;;1.27;0.93;;;10.40;99.90;;;;;;10383801;28;20200;-76
2020/12/06 17:45:27;;;;;;;1.83;0.93;;;10.40;99.90;;;;;;10387477;28;20365;-78
2020/12/06 17:50:36;;;;;;;5.77;2.70;;;10.00;99.90;;;;;;10384973;28;20255;-77
2020/12/06 17:55:39;;;;;;;1.30;1.20;;;9.60;99.90;;;;;;10380756;28;20222;-75
2020/12/06 18:00:42;;;;;;;1.17;1.07;;;9.50;99.90;;;;;;10377881;28;20201;-78
2020/12/06 18:05:46;;;;;;;2.23;1.43;;;9.60;99.90;;;;;;10382415;28;20651;-77
2020/12/06 18:10:48;;;;;;;1.27;1.17;;;9.50;99.90;;;;;;10378604;28;20199;-79
2020/12/06 18:15:51;;;;;;;10.77;2.07;;;9.30;99.90;;;;;;10384757;28;20305;-80
2020/12/06 18:20:54;;;;;;;0.33;0.33;;;9.40;99.90;;;;;;10386575;28;20202;-78
2020/12/06 18:25:57;;;;;;;4.13;1.00;;;9.40;99.90;;;;;;10376016;28;20199;-78
2020/12/06 18:30:59;;;;;;;1.10;0.93;;;9.30;99.90;;;;;;10367656;28;20232;-77
2020/12/06 18:36:04;;;;;;;1.20;1.13;;;8.70;99.90;;;;;;10370013;28;20228;-77
2020/12/06 18:41:07;;;;;;;4.53;1.27;;;8.20;99.90;;;;;;10368996;28;20209;-75
2020/12/06 18:46:11;;;;;;;0.60;0.60;;;7.80;99.90;;;;;;10387583;28;20589;-76
2020/12/06 18:51:15;;;;;;;0.60;0.60;;;7.60;99.90;;;;;;10390155;28;20202;-77
2020/12/06 18:56:18;;;;;;;1.03;0.60;;;7.70;99.90;;;;;;10374928;28;20231;-77
2020/12/06 19:01:25;;;;;;;0.47;0.27;;;7.90;99.90;;;;;;10397359;28;20281;-76
2020/12/06 19:06:28;;;;;;;0.93;0.93;;;8.00;99.90;;;;;;10387270;28;20201;-75
2020/12/06 19:11:31;;;;;;;1.40;1.13;;;8.00;99.90;;;;;;10369489;28;20199;-75
2020/12/06 19:16:33;;;;;;;1.97;1.60;;;7.90;99.90;;;;;;10369836;28;20376;-77
2020/12/06 19:21:39;;;;;;;1.63;1.53;;;7.80;99.90;;;;;;10370899;28;20290;-77
2020/12/06 19:26:41;;;;;;;0.50;0.50;;;7.50;99.90;;;;;;10371554;28;20199;-76
2020/12/06 19:31:46;;;;;;;1.87;1.20;;;7.30;99.90;;;;;;10370024;28;20215;-76
2020/12/06 19:36:49;;;;;;;3.20;1.87;;;7.40;99.90;;;;;;10356489;28;20219;-76
2020/12/06 19:41:52;;;;;;;1.37;1.27;;;7.50;99.90;;;;;;10397273;28;20559;-76
2020/12/06 19:46:54;;;;;;;0.77;0.77;;;7.70;99.90;;;;;;10384752;28;20195;-76
2020/12/06 19:51:58;;;;;;;2.43;2.27;;;7.60;99.90;;;;;;10384702;28;20191;-77
2020/12/06 19:57:01;;;;;;;2.90;1.77;;;7.30;99.90;;;;;;10367895;28;20714;-78
2020/12/06 20:02:05;;;;;;;14.67;3.27;;;7.40;99.90;;;;;;10368995;28;20195;-76
2020/12/06 20:07:09;;;;;;;0.83;0.83;;;7.20;99.90;;;;;;10368804;28;20211;-79
2020/12/06 20:12:12;;;;;;;0.33;0.33;;;6.70;99.90;;;;;;10368984;28;20205;-77
2020/12/06 20:17:20;;;;;;;2.90;1.33;;;6.50;99.90;;;;;;10368415;28;20313;-72
2020/12/06 20:22:25;;;;;;;1.63;1.53;;;6.60;99.90;;;;;;10368672;28;20780;-76
2020/12/06 20:27:29;;;;;;;1.60;1.30;;;6.70;99.90;;;;;;10368073;28;20199;-75
2020/12/06 20:32:32;;;;;;;0.97;0.93;;;6.90;99.90;;;;;;10366768;28;20306;-76
2020/12/06 20:37:36;;;;;;;1.20;1.03;;;6.60;99.90;;;;;;10366392;28;20223;-78
2020/12/06 20:42:39;;;;;;;0.87;0.87;;;6.50;99.90;;;;;;10366454;28;20195;-76
2020/12/06 20:47:42;;;;;;;0.40;0.40;;;6.10;99.90;;;;;;10371715;28;20202;-80
2020/12/06 20:52:45;;;;;;;1.30;0.63;;;6.20;99.90;;;;;;10373520;28;20201;-80
2020/12/06 20:57:48;;;;;;;0.93;0.40;;;7.40;99.90;;;;;;10368193;28;20623;-77
2020/12/06 21:02:51;;;;;;;0.20;0.10;;;7.90;99.90;;;;;;10368741;28;20199;-77
2020/12/06 21:07:54;;;;;;;0.20;0.20;;;8.30;99.90;;;;;;10366438;28;20183;-78
2020/12/06 21:12:57;;;;;;;0.70;0.70;;;8.20;99.90;;;;;;10368335;28;20621;-75
2020/12/06 21:17:59;;;;;;;22.03;7.40;;;8.00;99.90;;;;;;10367969;28;20206;-75
2020/12/06 21:23:03;;;;;;;0.53;0.53;;;7.80;99.90;;;;;;10367972;28;20195;-75
2020/12/06 21:28:05;;;;;;;0.40;0.40;;;7.40;99.90;;;;;;10367137;28;20278;-74
2020/12/06 21:33:08;;;;;;;0.30;0.30;;;7.30;99.90;;;;;;10370296;28;20234;-77
2020/12/06 21:38:11;;;;;;;1.43;0.77;;;7.30;99.90;;;;;;10366820;28;20199;-77
2020/12/06 21:43:14;;;;;;;3.00;1.43;;;7.10;99.90;;;;;;10367407;28;20187;-75
2020/12/06 21:48:17;;;;;;;0.67;0.67;;;6.40;99.90;;;;;;10382362;28;20222;-74
2020/12/06 21:53:20;;;;;;;0.50;0.50;;;6.40;99.90;;;;;;10366032;28;20698;-73
2020/12/06 21:58:23;;;;;;;1.47;1.30;;;6.30;99.90;;;;;;10366880;28;20210;-71
2020/12/06 22:03:25;;;;;;;6.17;2.47;;;6.30;99.90;;;;;;10367173;28;20555;-74
2020/12/06 22:08:29;;;;;;;1.77;1.43;;;6.00;99.90;;;;;;10366745;28;20210;-75
2020/12/06 22:13:32;;;;;;;4.07;0.93;;;6.00;99.90;;;;;;10365752;28;20284;-74
2020/12/06 22:18:35;;;;;;;0.30;0.30;;;5.90;99.90;;;;;;10366992;28;20198;-73
2020/12/06 22:23:39;;;;;;;1.97;1.37;;;5.70;99.90;;;;;;10367005;28;20202;-74
2020/12/06 22:28:41;;;;;;;7.80;2.90;;;5.60;99.90;;;;;;10366315;28;20195;-73
2020/12/06 22:33:44;;;;;;;1.17;0.60;;;5.80;99.90;;;;;;10366521;28;20233;-74
2020/12/06 22:38:48;;;;;;;1.83;1.60;;;5.80;99.90;;;;;;10365376;28;20191;-74
2020/12/06 22:43:51;;;;;;;6.97;1.53;;;6.30;99.90;;;;;;10366454;28;20241;-74
2020/12/06 22:48:53;;;;;;;1.03;0.60;;;7.10;99.90;;;;;;10410662;28;20280;-75
2020/12/06 22:53:57;;;;;;;0.97;0.40;;;6.70;99.90;;;;;;10413957;28;20625;-73
2020/12/06 22:58:59;;;;;;;1.40;0.77;;;6.80;99.90;;;;;;10413944;28;20202;-74
2020/12/06 23:04:03;;;;;;;0.90;0.90;;;6.80;99.90;;;;;;10414057;28;20636;-74
2020/12/06 23:09:07;;;;;;;2.73;0.77;;;6.80;99.90;;;;;;10413294;28;20196;-74
2020/12/06 23:14:09;;;;;;;0.43;0.40;;;6.70;99.90;;;;;;10413738;28;20218;-75
2020/12/06 23:19:12;;;;;;;0.23;0.23;;;6.70;99.90;;;;;;10413180;28;20206;-75
2020/12/06 23:24:15;;;;;;;0.40;0.40;;;6.50;99.90;;;;;;10387700;28;20203;-75
2020/12/06 23:29:18;;;;;;;0.20;0.10;;;6.90;99.90;;;;;;10372206;28;20229;-75
2020/12/06 23:34:20;;;;;;;0.30;0.30;;;7.10;99.90;;;;;;10371615;28;20593;-74
2020/12/06 23:39:24;;;;;;;0.50;0.50;;;7.30;99.90;;;;;;10378613;28;20290;-74
2020/12/06 23:44:26;;;;;;;0.40;0.20;;;7.30;99.90;;;;;;10390695;28;20711;-75
2020/12/06 23:49:29;;;;;;;0.30;0.13;;;7.20;99.90;;;;;;10389169;28;20696;-74
2020/12/06 23:54:33;;;;;;;0.90;0.53;;;6.90;99.90;;;;;;10389784;28;20297;-74
2020/12/06 23:59:38;;;;;;;0.20;0.10;;;6.80;99.90;;;;;;10394116;28;20205;-75
